sensor_id;sensor_type;location;lat;lon;timestamp;P1;durP1;ratioP1;P2;durP2;ratioP2
12412;SDS011;13877;18.896;-99.222;2022-09-03T00:00:51;7.30;;;4.35;;
12412;SDS011;13877;18.896;-99.222;2022-09-03T00:03:23;9.02;;;4.07;;
12412;SDS011;13877;18.896;-99.222;2022-09-03T00:06:13;6.50;;;4.10;;
12412;SDS011;13877;18.896;-99.222;2022-09-03T00:09:08;6.47;;;4.30;;
12412;SDS011;13877;18.896;-99.222;2022-09-03T00:11:57;8.25;;;4.10;;
12412;SDS011;13877;18.896;-99.222;2022-09-03T00:17:13;7.65;;;4.05;;
12412;SDS011;13877;18.896;-99.222;2022-09-03T00:19:59;5.32;;;3.58;;
12412;SDS011;13877;18.896;-99.222;2022-09-03T00:22:32;8.50;;;4.63;;
12412;SDS011;13877;18.896;-99.222;2022-09-03T00:27:31;9.25;;;5.60;;
12412;SDS011;13877;18.896;-99.222;2022-09-03T00:30:04;16.45;;;8.18;;
12412;SDS011;13877;18.896;-99.222;2022-09-03T00:36:22;23.67;;;10.77;;
12412;SDS011;13877;18.896;-99.222;2022-09-03T00:38:30;10.32;;;6.30;;
12412;SDS011;13877;18.896;-99.222;2022-09-03T00:42:00;19.13;;;6.60;;
12412;SDS011;13877;18.896;-99.222;2022-09-03T00:44:32;16.75;;;8.32;;
12412;SDS011;13877;18.896;-99.222;2022-09-03T00:47:11;22.80;;;9.95;;
12412;SDS011;13877;18.896;-99.222;2022-09-03T01:00:40;15.48;;;7.00;;
12412;SDS011;13877;18.896;-99.222;2022-09-03T01:06:17;11.07;;;5.18;;
12412;SDS011;13877;18.896;-99.222;2022-09-03T01:20:11;8.70;;;5.78;;
12412;SDS011;13877;18.896;-99.222;2022-09-03T01:31:21;11.43;;;5.20;;
12412;SDS011;13877;18.896;-99.222;2022-09-03T01:34:19;16.70;;;6.50;;
12412;SDS011;13877;18.896;-99.222;2022-09-03T01:51:21;23.77;;;11.95;;
12412;SDS011;13877;18.896;-99.222;2022-09-03T01:59:46;15.65;;;11.48;;
12412;SDS011;13877;18.896;-99.222;2022-09-03T02:02:37;18.90;;;10.82;;
12412;SDS011;13877;18.896;-99.222;2022-09-03T02:05:10;23.98;;;13.15;;
12412;SDS011;13877;18.896;-99.222;2022-09-03T02:07:47;20.83;;;13.48;;
12412;SDS011;13877;18.896;-99.222;2022-09-03T02:10:20;23.02;;;14.15;;
12412;SDS011;13877;18.896;-99.222;2022-09-03T02:12:58;19.30;;;12.95;;
12412;SDS011;13877;18.896;-99.222;2022-09-03T02:15:32;24.50;;;14.07;;
12412;SDS011;13877;18.896;-99.222;2022-09-03T02:18:02;23.55;;;12.73;;
12412;SDS011;13877;18.896;-99.222;2022-09-03T02:20:34;19.67;;;11.65;;
12412;SDS011;13877;18.896;-99.222;2022-09-03T02:23:02;25.98;;;12.20;;
12412;SDS011;13877;18.896;-99.222;2022-09-03T02:25:31;16.00;;;9.68;;
12412;SDS011;13877;18.896;-99.222;2022-09-03T02:28:05;13.25;;;8.05;;
12412;SDS011;13877;18.896;-99.222;2022-09-03T02:30:33;23.60;;;7.53;;
12412;SDS011;13877;18.896;-99.222;2022-09-03T02:33:01;11.35;;;7.63;;
12412;SDS011;13877;18.896;-99.222;2022-09-03T02:35:28;13.57;;;6.22;;
12412;SDS011;13877;18.896;-99.222;2022-09-03T02:37:56;12.30;;;6.80;;
12412;SDS011;13877;18.896;-99.222;2022-09-03T02:40:34;18.45;;;7.75;;
12412;SDS011;13877;18.896;-99.222;2022-09-03T02:43:02;19.15;;;10.63;;
12412;SDS011;13877;18.896;-99.222;2022-09-03T02:45:30;21.13;;;11.63;;
12412;SDS011;13877;18.896;-99.222;2022-09-03T02:47:58;22.65;;;12.27;;
12412;SDS011;13877;18.896;-99.222;2022-09-03T02:50:26;22.20;;;10.80;;
12412;SDS011;13877;18.896;-99.222;2022-09-03T02:52:53;13.43;;;9.05;;
12412;SDS011;13877;18.896;-99.222;2022-09-03T02:55:21;19.73;;;10.77;;
12412;SDS011;13877;18.896;-99.222;2022-09-03T02:57:48;15.20;;;10.05;;
12412;SDS011;13877;18.896;-99.222;2022-09-03T03:00:16;15.90;;;11.30;;
12412;SDS011;13877;18.896;-99.222;2022-09-03T03:02:45;23.88;;;12.63;;
12412;SDS011;13877;18.896;-99.222;2022-09-03T03:05:14;20.63;;;11.73;;
12412;SDS011;13877;18.896;-99.222;2022-09-03T03:07:50;16.52;;;10.43;;
12412;SDS011;13877;18.896;-99.222;2022-09-03T03:10:16;19.45;;;8.23;;
12412;SDS011;13877;18.896;-99.222;2022-09-03T03:12:44;15.13;;;7.75;;
12412;SDS011;13877;18.896;-99.222;2022-09-03T03:15:11;9.02;;;5.45;;
12412;SDS011;13877;18.896;-99.222;2022-09-03T03:17:38;8.48;;;4.78;;
12412;SDS011;13877;18.896;-99.222;2022-09-03T03:20:06;6.80;;;4.60;;
12412;SDS011;13877;18.896;-99.222;2022-09-03T03:22:34;8.00;;;5.18;;
12412;SDS011;13877;18.896;-99.222;2022-09-03T03:25:01;10.82;;;5.57;;
12412;SDS011;13877;18.896;-99.222;2022-09-03T03:27:28;11.23;;;6.30;;
12412;SDS011;13877;18.896;-99.222;2022-09-03T03:29:55;12.45;;;6.35;;
12412;SDS011;13877;18.896;-99.222;2022-09-03T03:32:23;10.25;;;6.32;;
12412;SDS011;13877;18.896;-99.222;2022-09-03T03:34:50;10.30;;;6.05;;
12412;SDS011;13877;18.896;-99.222;2022-09-03T03:37:17;13.20;;;5.88;;
12412;SDS011;13877;18.896;-99.222;2022-09-03T03:39:44;17.27;;;5.82;;
12412;SDS011;13877;18.896;-99.222;2022-09-03T03:42:11;10.95;;;5.07;;
12412;SDS011;13877;18.896;-99.222;2022-09-03T03:44:38;8.18;;;5.13;;
12412;SDS011;13877;18.896;-99.222;2022-09-03T03:47:07;14.68;;;5.45;;
12412;SDS011;13877;18.896;-99.222;2022-09-03T03:49:34;15.30;;;8.50;;
12412;SDS011;13877;18.896;-99.222;2022-09-03T03:52:01;17.05;;;8.35;;
12412;SDS011;13877;18.896;-99.222;2022-09-03T03:54:29;11.93;;;8.23;;
12412;SDS011;13877;18.896;-99.222;2022-09-03T03:57:00;22.38;;;9.85;;
12412;SDS011;13877;18.896;-99.222;2022-09-03T03:59:27;19.33;;;10.93;;
12412;SDS011;13877;18.896;-99.222;2022-09-03T04:01:54;18.90;;;10.45;;
12412;SDS011;13877;18.896;-99.222;2022-09-03T04:04:20;23.70;;;11.18;;
12412;SDS011;13877;18.896;-99.222;2022-09-03T04:06:47;17.75;;;7.95;;
12412;SDS011;13877;18.896;-99.222;2022-09-03T04:09:14;13.15;;;7.88;;
12412;SDS011;13877;18.896;-99.222;2022-09-03T04:11:41;13.55;;;7.50;;
12412;SDS011;13877;18.896;-99.222;2022-09-03T04:14:08;16.95;;;8.25;;
12412;SDS011;13877;18.896;-99.222;2022-09-03T04:16:35;16.25;;;8.05;;
12412;SDS011;13877;18.896;-99.222;2022-09-03T04:19:02;14.48;;;8.52;;
12412;SDS011;13877;18.896;-99.222;2022-09-03T04:21:30;18.65;;;7.45;;
12412;SDS011;13877;18.896;-99.222;2022-09-03T04:23:57;19.48;;;8.55;;
12412;SDS011;13877;18.896;-99.222;2022-09-03T04:26:26;13.95;;;8.73;;
12412;SDS011;13877;18.896;-99.222;2022-09-03T04:28:57;13.75;;;7.38;;
12412;SDS011;13877;18.896;-99.222;2022-09-03T04:31:28;19.17;;;8.40;;
12412;SDS011;13877;18.896;-99.222;2022-09-03T04:33:55;13.95;;;7.50;;
12412;SDS011;13877;18.896;-99.222;2022-09-03T04:36:24;12.10;;;7.53;;
12412;SDS011;13877;18.896;-99.222;2022-09-03T04:38:53;15.57;;;8.40;;
12412;SDS011;13877;18.896;-99.222;2022-09-03T04:41:26;18.50;;;8.93;;
12412;SDS011;13877;18.896;-99.222;2022-09-03T04:43:56;20.70;;;10.05;;
12412;SDS011;13877;18.896;-99.222;2022-09-03T04:46:24;26.35;;;11.68;;
12412;SDS011;13877;18.896;-99.222;2022-09-03T04:48:53;22.17;;;12.45;;
12412;SDS011;13877;18.896;-99.222;2022-09-03T04:51:22;15.70;;;11.48;;
12412;SDS011;13877;18.896;-99.222;2022-09-03T04:53:53;22.20;;;12.52;;
12412;SDS011;13877;18.896;-99.222;2022-09-03T04:56:26;24.80;;;13.60;;
12412;SDS011;13877;18.896;-99.222;2022-09-03T04:58:55;24.02;;;12.15;;
12412;SDS011;13877;18.896;-99.222;2022-09-03T05:01:30;17.42;;;11.25;;
12412;SDS011;13877;18.896;-99.222;2022-09-03T05:03:59;18.92;;;11.23;;
12412;SDS011;13877;18.896;-99.222;2022-09-03T05:06:27;18.38;;;11.55;;
12412;SDS011;13877;18.896;-99.222;2022-09-03T05:08:56;20.60;;;10.65;;
12412;SDS011;13877;18.896;-99.222;2022-09-03T05:11:24;26.48;;;12.13;;
12412;SDS011;13877;18.896;-99.222;2022-09-03T05:13:52;25.20;;;11.57;;
12412;SDS011;13877;18.896;-99.222;2022-09-03T05:16:21;19.20;;;12.00;;
12412;SDS011;13877;18.896;-99.222;2022-09-03T05:18:55;17.88;;;12.20;;
12412;SDS011;13877;18.896;-99.222;2022-09-03T05:21:26;25.48;;;13.60;;
12412;SDS011;13877;18.896;-99.222;2022-09-03T05:23:55;31.02;;;14.25;;
12412;SDS011;13877;18.896;-99.222;2022-09-03T05:26:25;34.08;;;16.38;;
12412;SDS011;13877;18.896;-99.222;2022-09-03T05:28:55;36.25;;;18.15;;
12412;SDS011;13877;18.896;-99.222;2022-09-03T05:31:25;40.78;;;21.02;;
12412;SDS011;13877;18.896;-99.222;2022-09-03T05:33:54;36.65;;;20.35;;
12412;SDS011;13877;18.896;-99.222;2022-09-03T05:36:25;36.42;;;21.50;;
12412;SDS011;13877;18.896;-99.222;2022-09-03T05:38:55;40.22;;;21.40;;
12412;SDS011;13877;18.896;-99.222;2022-09-03T05:41:22;33.00;;;20.70;;
12412;SDS011;13877;18.896;-99.222;2022-09-03T05:43:51;38.30;;;22.10;;
12412;SDS011;13877;18.896;-99.222;2022-09-03T05:46:27;34.47;;;21.88;;
12412;SDS011;13877;18.896;-99.222;2022-09-03T05:48:59;38.38;;;22.42;;
12412;SDS011;13877;18.896;-99.222;2022-09-03T05:51:27;44.85;;;24.48;;
12412;SDS011;13877;18.896;-99.222;2022-09-03T05:53:56;36.85;;;22.20;;
12412;SDS011;13877;18.896;-99.222;2022-09-03T05:56:23;34.78;;;21.33;;
12412;SDS011;13877;18.896;-99.222;2022-09-03T05:58:52;36.85;;;19.90;;
12412;SDS011;13877;18.896;-99.222;2022-09-03T06:03:52;36.85;;;20.13;;
12412;SDS011;13877;18.896;-99.222;2022-09-03T06:06:30;34.35;;;18.55;;
12412;SDS011;13877;18.896;-99.222;2022-09-03T06:08:59;31.77;;;18.13;;
12412;SDS011;13877;18.896;-99.222;2022-09-03T06:11:28;29.42;;;16.05;;
12412;SDS011;13877;18.896;-99.222;2022-09-03T06:13:56;30.02;;;16.38;;
12412;SDS011;13877;18.896;-99.222;2022-09-03T06:16:30;31.15;;;17.52;;
12412;SDS011;13877;18.896;-99.222;2022-09-03T06:18:58;30.95;;;17.25;;
12412;SDS011;13877;18.896;-99.222;2022-09-03T06:21:25;31.55;;;17.45;;
12412;SDS011;13877;18.896;-99.222;2022-09-03T06:23:54;38.45;;;18.58;;
12412;SDS011;13877;18.896;-99.222;2022-09-03T06:26:22;31.77;;;18.63;;
12412;SDS011;13877;18.896;-99.222;2022-09-03T06:28:49;30.35;;;17.17;;
12412;SDS011;13877;18.896;-99.222;2022-09-03T06:31:20;32.20;;;17.35;;
12412;SDS011;13877;18.896;-99.222;2022-09-03T06:33:48;32.67;;;17.65;;
12412;SDS011;13877;18.896;-99.222;2022-09-03T06:36:16;39.00;;;18.48;;
12412;SDS011;13877;18.896;-99.222;2022-09-03T06:38:44;29.77;;;18.20;;
12412;SDS011;13877;18.896;-99.222;2022-09-03T06:41:13;32.53;;;18.40;;
12412;SDS011;13877;18.896;-99.222;2022-09-03T06:43:46;32.05;;;17.88;;
12412;SDS011;13877;18.896;-99.222;2022-09-03T06:46:15;36.83;;;18.05;;
12412;SDS011;13877;18.896;-99.222;2022-09-03T06:48:43;33.95;;;19.10;;
12412;SDS011;13877;18.896;-99.222;2022-09-03T06:51:13;33.72;;;17.27;;
12412;SDS011;13877;18.896;-99.222;2022-09-03T06:53:51;28.15;;;17.27;;
12412;SDS011;13877;18.896;-99.222;2022-09-03T06:56:21;36.42;;;17.20;;
12412;SDS011;13877;18.896;-99.222;2022-09-03T06:58:52;34.47;;;19.42;;
12412;SDS011;13877;18.896;-99.222;2022-09-03T07:01:22;27.80;;;17.08;;
12412;SDS011;13877;18.896;-99.222;2022-09-03T07:03:56;35.15;;;19.20;;
12412;SDS011;13877;18.896;-99.222;2022-09-03T07:06:26;33.63;;;18.98;;
12412;SDS011;13877;18.896;-99.222;2022-09-03T07:09:04;32.20;;;18.05;;
12412;SDS011;13877;18.896;-99.222;2022-09-03T07:11:32;28.63;;;17.50;;
12412;SDS011;13877;18.896;-99.222;2022-09-03T07:14:01;26.52;;;16.70;;
12412;SDS011;13877;18.896;-99.222;2022-09-03T07:16:33;37.88;;;17.60;;
12412;SDS011;13877;18.896;-99.222;2022-09-03T07:19:02;35.20;;;15.52;;
12412;SDS011;13877;18.896;-99.222;2022-09-03T07:21:31;25.35;;;14.90;;
12412;SDS011;13877;18.896;-99.222;2022-09-03T07:24:01;34.42;;;14.93;;
12412;SDS011;13877;18.896;-99.222;2022-09-03T07:26:31;29.88;;;14.77;;
12412;SDS011;13877;18.896;-99.222;2022-09-03T07:29:00;26.30;;;13.77;;
12412;SDS011;13877;18.896;-99.222;2022-09-03T07:31:28;19.38;;;11.32;;
12412;SDS011;13877;18.896;-99.222;2022-09-03T07:34:06;18.60;;;12.23;;
12412;SDS011;13877;18.896;-99.222;2022-09-03T07:36:38;18.85;;;9.95;;
12412;SDS011;13877;18.896;-99.222;2022-09-03T07:39:07;17.20;;;9.63;;
12412;SDS011;13877;18.896;-99.222;2022-09-03T07:41:39;19.88;;;8.00;;
12412;SDS011;13877;18.896;-99.222;2022-09-03T07:44:11;17.05;;;9.52;;
12412;SDS011;13877;18.896;-99.222;2022-09-03T07:46:41;17.05;;;8.30;;
12412;SDS011;13877;18.896;-99.222;2022-09-03T07:49:09;24.88;;;8.98;;
12412;SDS011;13877;18.896;-99.222;2022-09-03T07:51:37;16.50;;;8.88;;
12412;SDS011;13877;18.896;-99.222;2022-09-03T07:54:05;14.65;;;8.48;;
12412;SDS011;13877;18.896;-99.222;2022-09-03T07:56:36;20.92;;;9.82;;
12412;SDS011;13877;18.896;-99.222;2022-09-03T07:59:04;17.55;;;9.68;;
12412;SDS011;13877;18.896;-99.222;2022-09-03T08:01:32;19.52;;;10.27;;
12412;SDS011;13877;18.896;-99.222;2022-09-03T08:04:00;20.42;;;11.20;;
12412;SDS011;13877;18.896;-99.222;2022-09-03T08:06:29;18.13;;;11.45;;
12412;SDS011;13877;18.896;-99.222;2022-09-03T08:08:59;22.48;;;11.38;;
12412;SDS011;13877;18.896;-99.222;2022-09-03T08:11:28;21.15;;;11.65;;
12412;SDS011;13877;18.896;-99.222;2022-09-03T08:13:57;25.77;;;13.38;;
12412;SDS011;13877;18.896;-99.222;2022-09-03T08:16:28;22.75;;;12.50;;
12412;SDS011;13877;18.896;-99.222;2022-09-03T08:18:56;22.10;;;12.93;;
12412;SDS011;13877;18.896;-99.222;2022-09-03T08:21:24;31.35;;;13.95;;
12412;SDS011;13877;18.896;-99.222;2022-09-03T08:23:52;25.70;;;14.40;;
12412;SDS011;13877;18.896;-99.222;2022-09-03T08:26:31;22.20;;;12.50;;
12412;SDS011;13877;18.896;-99.222;2022-09-03T08:28:59;25.10;;;13.65;;
12412;SDS011;13877;18.896;-99.222;2022-09-03T08:31:27;28.42;;;14.27;;
12412;SDS011;13877;18.896;-99.222;2022-09-03T08:33:56;16.77;;;10.65;;
12412;SDS011;13877;18.896;-99.222;2022-09-03T08:36:24;25.20;;;10.40;;
12412;SDS011;13877;18.896;-99.222;2022-09-03T08:38:56;17.70;;;9.10;;
12412;SDS011;13877;18.896;-99.222;2022-09-03T08:41:33;18.15;;;9.38;;
12412;SDS011;13877;18.896;-99.222;2022-09-03T08:44:23;17.65;;;8.40;;
12412;SDS011;13877;18.896;-99.222;2022-09-03T08:52:25;15.82;;;6.47;;
12412;SDS011;13877;18.896;-99.222;2022-09-03T08:54:59;19.30;;;6.85;;
12412;SDS011;13877;18.896;-99.222;2022-09-03T08:58:13;13.60;;;7.10;;
12412;SDS011;13877;18.896;-99.222;2022-09-03T09:01:03;14.07;;;6.25;;
12412;SDS011;13877;18.896;-99.222;2022-09-03T09:21:19;15.02;;;7.00;;
12412;SDS011;13877;18.896;-99.222;2022-09-03T09:24:01;10.20;;;5.63;;
12412;SDS011;13877;18.896;-99.222;2022-09-03T09:26:35;14.57;;;6.32;;
12412;SDS011;13877;18.896;-99.222;2022-09-03T09:29:07;12.73;;;7.28;;
12412;SDS011;13877;18.896;-99.222;2022-09-03T09:31:37;23.90;;;7.88;;
12412;SDS011;13877;18.896;-99.222;2022-09-03T09:34:05;14.23;;;7.68;;
12412;SDS011;13877;18.896;-99.222;2022-09-03T09:36:40;12.57;;;7.53;;
12412;SDS011;13877;18.896;-99.222;2022-09-03T09:39:09;19.98;;;7.35;;
12412;SDS011;13877;18.896;-99.222;2022-09-03T09:41:36;15.63;;;7.93;;
12412;SDS011;13877;18.896;-99.222;2022-09-03T09:44:03;12.82;;;7.75;;
12412;SDS011;13877;18.896;-99.222;2022-09-03T09:46:36;14.20;;;8.18;;
12412;SDS011;13877;18.896;-99.222;2022-09-03T09:49:26;18.90;;;7.78;;
12412;SDS011;13877;18.896;-99.222;2022-09-03T09:52:01;13.20;;;6.78;;
12412;SDS011;13877;18.896;-99.222;2022-09-03T09:54:28;13.95;;;6.70;;
12412;SDS011;13877;18.896;-99.222;2022-09-03T09:57:03;13.13;;;6.72;;
12412;SDS011;13877;18.896;-99.222;2022-09-03T09:59:32;19.00;;;8.05;;
12412;SDS011;13877;18.896;-99.222;2022-09-03T10:02:07;10.10;;;7.03;;
12412;SDS011;13877;18.896;-99.222;2022-09-03T10:04:38;13.07;;;7.38;;
12412;SDS011;13877;18.896;-99.222;2022-09-03T10:07:19;12.73;;;6.93;;
12412;SDS011;13877;18.896;-99.222;2022-09-03T10:12:40;13.77;;;7.07;;
12412;SDS011;13877;18.896;-99.222;2022-09-03T10:25:33;17.88;;;7.32;;
12412;SDS011;13877;18.896;-99.222;2022-09-03T10:28:04;19.00;;;8.23;;
12412;SDS011;13877;18.896;-99.222;2022-09-03T10:30:38;16.63;;;9.27;;
12412;SDS011;13877;18.896;-99.222;2022-09-03T10:33:21;24.07;;;10.13;;
12412;SDS011;13877;18.896;-99.222;2022-09-03T10:36:05;19.05;;;9.80;;
12412;SDS011;13877;18.896;-99.222;2022-09-03T10:38:43;19.50;;;9.82;;
12412;SDS011;13877;18.896;-99.222;2022-09-03T10:44:06;26.88;;;11.35;;
12412;SDS011;13877;18.896;-99.222;2022-09-03T10:47:20;24.55;;;10.02;;
12412;SDS011;13877;18.896;-99.222;2022-09-03T10:55:32;28.02;;;9.55;;
12412;SDS011;13877;18.896;-99.222;2022-09-03T10:58:10;25.33;;;10.45;;
12412;SDS011;13877;18.896;-99.222;2022-09-03T11:00:46;16.90;;;10.68;;
12412;SDS011;13877;18.896;-99.222;2022-09-03T11:06:20;19.85;;;10.50;;
12412;SDS011;13877;18.896;-99.222;2022-09-03T11:08:55;26.73;;;9.50;;
12412;SDS011;13877;18.896;-99.222;2022-09-03T11:14:08;21.97;;;9.83;;
12412;SDS011;13877;18.896;-99.222;2022-09-03T11:19:14;19.65;;;8.85;;
12412;SDS011;13877;18.896;-99.222;2022-09-03T11:21:43;22.20;;;8.73;;
12412;SDS011;13877;18.896;-99.222;2022-09-03T11:24:13;16.05;;;8.70;;
12412;SDS011;13877;18.896;-99.222;2022-09-03T11:26:46;17.55;;;8.27;;
12412;SDS011;13877;18.896;-99.222;2022-09-03T11:32:14;17.85;;;8.75;;
12412;SDS011;13877;18.896;-99.222;2022-09-03T11:34:58;17.67;;;8.77;;
12412;SDS011;13877;18.896;-99.222;2022-09-03T11:37:28;18.00;;;9.07;;
12412;SDS011;13877;18.896;-99.222;2022-09-03T11:40:03;17.00;;;8.65;;
12412;SDS011;13877;18.896;-99.222;2022-09-03T11:42:45;26.02;;;8.57;;
12412;SDS011;13877;18.896;-99.222;2022-09-03T11:47:47;21.52;;;6.60;;
12412;SDS011;13877;18.896;-99.222;2022-09-03T11:50:17;12.43;;;5.95;;
12412;SDS011;13877;18.896;-99.222;2022-09-03T11:52:46;14.37;;;5.87;;
12412;SDS011;13877;18.896;-99.222;2022-09-03T11:55:25;14.40;;;6.40;;
12412;SDS011;13877;18.896;-99.222;2022-09-03T11:57:56;17.48;;;5.70;;
12412;SDS011;13877;18.896;-99.222;2022-09-03T12:00:23;16.50;;;6.60;;
12412;SDS011;13877;18.896;-99.222;2022-09-03T12:02:53;15.10;;;6.53;;
12412;SDS011;13877;18.896;-99.222;2022-09-03T12:05:26;11.02;;;5.68;;
12412;SDS011;13877;18.896;-99.222;2022-09-03T12:16:50;8.52;;;5.35;;
12412;SDS011;13877;18.896;-99.222;2022-09-03T12:22:22;8.65;;;5.28;;
12412;SDS011;13877;18.896;-99.222;2022-09-03T12:24:53;10.52;;;5.60;;
12412;SDS011;13877;18.896;-99.222;2022-09-03T12:27:22;7.95;;;5.30;;
12412;SDS011;13877;18.896;-99.222;2022-09-03T12:32:25;10.98;;;6.07;;
12412;SDS011;13877;18.896;-99.222;2022-09-03T12:34:57;13.73;;;5.80;;
12412;SDS011;13877;18.896;-99.222;2022-09-03T12:37:36;14.77;;;6.10;;
12412;SDS011;13877;18.896;-99.222;2022-09-03T12:40:14;14.30;;;5.80;;
12412;SDS011;13877;18.896;-99.222;2022-09-03T12:42:46;13.20;;;5.78;;
12412;SDS011;13877;18.896;-99.222;2022-09-03T12:45:14;18.95;;;5.72;;
12412;SDS011;13877;18.896;-99.222;2022-09-03T12:47:44;18.10;;;5.25;;
12412;SDS011;13877;18.896;-99.222;2022-09-03T12:50:12;15.75;;;4.50;;
12412;SDS011;13877;18.896;-99.222;2022-09-03T12:55:14;21.05;;;5.85;;
12412;SDS011;13877;18.896;-99.222;2022-09-03T12:57:52;17.15;;;6.00;;
12412;SDS011;13877;18.896;-99.222;2022-09-03T13:00:37;14.38;;;5.40;;
12412;SDS011;13877;18.896;-99.222;2022-09-03T13:06:14;15.60;;;5.75;;
12412;SDS011;13877;18.896;-99.222;2022-09-03T13:08:48;14.88;;;6.13;;
12412;SDS011;13877;18.896;-99.222;2022-09-03T13:24:54;11.48;;;5.72;;
12412;SDS011;13877;18.896;-99.222;2022-09-03T13:30:32;12.38;;;6.03;;
12412;SDS011;13877;18.896;-99.222;2022-09-03T13:33:23;14.57;;;4.93;;
12412;SDS011;13877;18.896;-99.222;2022-09-03T13:36:01;18.88;;;5.50;;
12412;SDS011;13877;18.896;-99.222;2022-09-03T13:46:54;16.65;;;5.43;;
12412;SDS011;13877;18.896;-99.222;2022-09-03T13:49:50;15.48;;;5.20;;
12412;SDS011;13877;18.896;-99.222;2022-09-03T14:00:42;19.95;;;7.55;;
12412;SDS011;13877;18.896;-99.222;2022-09-03T14:06:19;16.73;;;6.32;;
12412;SDS011;13877;18.896;-99.222;2022-09-03T14:17:42;20.45;;;5.88;;
12412;SDS011;13877;18.896;-99.222;2022-09-03T14:20:32;16.33;;;6.47;;
12412;SDS011;13877;18.896;-99.222;2022-09-03T14:26:15;14.10;;;6.82;;
12412;SDS011;13877;18.896;-99.222;2022-09-03T14:37:00;15.90;;;6.20;;
12412;SDS011;13877;18.896;-99.222;2022-09-03T14:39:33;17.08;;;5.18;;
12412;SDS011;13877;18.896;-99.222;2022-09-03T14:48:27;10.55;;;6.10;;
12412;SDS011;13877;18.896;-99.222;2022-09-03T14:51:18;12.77;;;6.80;;
12412;SDS011;13877;18.896;-99.222;2022-09-03T14:54:08;16.77;;;7.22;;
12412;SDS011;13877;18.896;-99.222;2022-09-03T15:00:20;7.65;;;4.90;;
12412;SDS011;13877;18.896;-99.222;2022-09-03T15:03:02;5.68;;;4.00;;
12412;SDS011;13877;18.896;-99.222;2022-09-03T15:06:01;8.35;;;4.30;;
12412;SDS011;13877;18.896;-99.222;2022-09-03T15:11:18;10.52;;;5.55;;
12412;SDS011;13877;18.896;-99.222;2022-09-03T15:30:44;11.18;;;6.18;;
12412;SDS011;13877;18.896;-99.222;2022-09-03T15:36:53;13.65;;;7.22;;
12412;SDS011;13877;18.896;-99.222;2022-09-03T15:39:27;11.90;;;6.65;;
12412;SDS011;13877;18.896;-99.222;2022-09-03T15:41:59;6.90;;;4.90;;
12412;SDS011;13877;18.896;-99.222;2022-09-03T15:44:38;10.77;;;5.15;;
12412;SDS011;13877;18.896;-99.222;2022-09-03T15:47:36;10.73;;;7.70;;
12412;SDS011;13877;18.896;-99.222;2022-09-03T15:53:14;12.73;;;8.40;;
12412;SDS011;13877;18.896;-99.222;2022-09-03T15:56:13;13.32;;;7.10;;
12412;SDS011;13877;18.896;-99.222;2022-09-03T16:01:34;12.35;;;6.03;;
12412;SDS011;13877;18.896;-99.222;2022-09-03T16:07:02;13.38;;;7.70;;
12412;SDS011;13877;18.896;-99.222;2022-09-03T16:20:18;15.30;;;7.60;;
12412;SDS011;13877;18.896;-99.222;2022-09-03T16:26:12;17.65;;;8.63;;
12412;SDS011;13877;18.896;-99.222;2022-09-03T16:28:53;15.20;;;7.40;;
12412;SDS011;13877;18.896;-99.222;2022-09-03T16:31:27;14.32;;;8.38;;
12412;SDS011;13877;18.896;-99.222;2022-09-03T16:37:05;14.05;;;8.77;;
12412;SDS011;13877;18.896;-99.222;2022-09-03T16:55:52;14.90;;;7.40;;
12412;SDS011;13877;18.896;-99.222;2022-09-03T16:58:47;15.60;;;8.57;;
12412;SDS011;13877;18.896;-99.222;2022-09-03T17:04:07;12.60;;;9.10;;
12412;SDS011;13877;18.896;-99.222;2022-09-03T17:12:23;9.35;;;7.30;;
12412;SDS011;13877;18.896;-99.222;2022-09-03T17:15:12;10.90;;;7.40;;
12412;SDS011;13877;18.896;-99.222;2022-09-03T17:18:03;10.45;;;6.68;;
12412;SDS011;13877;18.896;-99.222;2022-09-03T17:32:26;22.20;;;7.75;;
12412;SDS011;13877;18.896;-99.222;2022-09-03T17:47:09;13.73;;;9.07;;
12412;SDS011;13877;18.896;-99.222;2022-09-03T17:52:48;15.43;;;8.73;;
12412;SDS011;13877;18.896;-99.222;2022-09-03T17:58:18;11.82;;;7.05;;
12412;SDS011;13877;18.896;-99.222;2022-09-03T18:01:16;17.02;;;7.35;;
12412;SDS011;13877;18.896;-99.222;2022-09-03T18:09:11;11.30;;;6.72;;
12412;SDS011;13877;18.896;-99.222;2022-09-03T18:12:03;10.60;;;7.65;;
12412;SDS011;13877;18.896;-99.222;2022-09-03T18:14:43;10.68;;;6.45;;
12412;SDS011;13877;18.896;-99.222;2022-09-03T18:17:30;13.40;;;7.10;;
12412;SDS011;13877;18.896;-99.222;2022-09-03T18:20:16;14.18;;;7.15;;
12412;SDS011;13877;18.896;-99.222;2022-09-03T18:23:06;10.60;;;7.70;;
12412;SDS011;13877;18.896;-99.222;2022-09-03T18:26:02;11.93;;;6.90;;
12412;SDS011;13877;18.896;-99.222;2022-09-03T18:32:04;11.32;;;7.40;;
12412;SDS011;13877;18.896;-99.222;2022-09-03T18:34:50;10.15;;;7.20;;
12412;SDS011;13877;18.896;-99.222;2022-09-03T18:37:35;12.27;;;7.35;;
12412;SDS011;13877;18.896;-99.222;2022-09-03T18:40:23;16.35;;;7.38;;
12412;SDS011;13877;18.896;-99.222;2022-09-03T18:46:27;17.02;;;7.78;;
12412;SDS011;13877;18.896;-99.222;2022-09-03T18:49:31;11.57;;;7.60;;
12412;SDS011;13877;18.896;-99.222;2022-09-03T19:11:23;10.77;;;6.85;;
12412;SDS011;13877;18.896;-99.222;2022-09-03T19:14:23;10.90;;;8.00;;
12412;SDS011;13877;18.896;-99.222;2022-09-03T19:17:25;10.77;;;7.55;;
12412;SDS011;13877;18.896;-99.222;2022-09-03T19:20:27;10.63;;;7.57;;
12412;SDS011;13877;18.896;-99.222;2022-09-03T19:23:14;12.10;;;8.77;;
12412;SDS011;13877;18.896;-99.222;2022-09-03T19:29:59;12.32;;;9.02;;
12412;SDS011;13877;18.896;-99.222;2022-09-03T19:32:25;13.93;;;8.52;;
12412;SDS011;13877;18.896;-99.222;2022-09-03T19:35:40;11.93;;;8.30;;
12412;SDS011;13877;18.896;-99.222;2022-09-03T19:47:51;14.75;;;9.15;;
12412;SDS011;13877;18.896;-99.222;2022-09-03T19:50:53;14.48;;;9.10;;
12412;SDS011;13877;18.896;-99.222;2022-09-03T19:54:01;14.02;;;9.35;;
12412;SDS011;13877;18.896;-99.222;2022-09-03T19:56:50;12.65;;;8.38;;
12412;SDS011;13877;18.896;-99.222;2022-09-03T19:59:38;10.68;;;7.55;;
12412;SDS011;13877;18.896;-99.222;2022-09-03T20:02:24;13.38;;;7.38;;
12412;SDS011;13877;18.896;-99.222;2022-09-03T20:05:13;16.33;;;7.97;;
12412;SDS011;13877;18.896;-99.222;2022-09-03T20:08:02;12.80;;;8.68;;
12412;SDS011;13877;18.896;-99.222;2022-09-03T20:10:49;14.02;;;8.73;;
12412;SDS011;13877;18.896;-99.222;2022-09-03T20:13:21;13.30;;;8.23;;
12412;SDS011;13877;18.896;-99.222;2022-09-03T20:18:41;12.52;;;8.20;;
12412;SDS011;13877;18.896;-99.222;2022-09-03T20:31:57;17.23;;;7.88;;
12412;SDS011;13877;18.896;-99.222;2022-09-03T20:37:27;15.73;;;7.80;;
12412;SDS011;13877;18.896;-99.222;2022-09-03T20:43:17;11.93;;;7.78;;
12412;SDS011;13877;18.896;-99.222;2022-09-03T20:48:57;13.85;;;7.82;;
12412;SDS011;13877;18.896;-99.222;2022-09-03T20:51:44;13.15;;;8.07;;
12412;SDS011;13877;18.896;-99.222;2022-09-03T20:54:28;17.50;;;9.25;;
12412;SDS011;13877;18.896;-99.222;2022-09-03T21:02:27;16.85;;;8.43;;
12412;SDS011;13877;18.896;-99.222;2022-09-03T21:05:02;14.55;;;8.00;;
12412;SDS011;13877;18.896;-99.222;2022-09-03T21:10:31;14.90;;;8.48;;
12412;SDS011;13877;18.896;-99.222;2022-09-03T21:21:31;10.45;;;7.15;;
12412;SDS011;13877;18.896;-99.222;2022-09-03T21:24:32;12.63;;;8.27;;
12412;SDS011;13877;18.896;-99.222;2022-09-03T21:26:58;11.50;;;7.80;;